Terminal Aerodrome Forecast
Issued by NWS

Home | Current Version | Previous Version | Text Only | Print | Product List | Glossary Off
Versions: 1 2 3 4 5 6 7 8 9 10 11 12 13

279
FTUS43 KOAX 032334
TAFCDR
TAF
KCDR 032334Z 0400/0424 29012KT P6SM SKC
     FM040500 25006KT P6SM SCT250
     FM041800 28010KT P6SM BKN250=

USA.gov is the U.S. government's official web portal to all federal, state and local government web resources and services.